createdAt,value
2022-09-11T00:10:41.592Z,8.10
2022-09-11T00:15:40.754Z,7.80
2022-09-11T00:20:38.926Z,7.80
2022-09-11T00:30:38.795Z,7.00
2022-09-11T00:35:39.610Z,7.30
2022-09-11T00:40:46.588Z,7.30
2022-09-11T00:45:38.985Z,6.90
2022-09-11T00:50:42.647Z,6.90
2022-09-11T00:55:43.999Z,6.80
2022-09-11T01:05:41.133Z,6.70
2022-09-11T01:15:46.354Z,7.50
2022-09-11T01:20:47.235Z,7.50
2022-09-11T01:25:57.798Z,6.90
2022-09-11T01:30:42.300Z,6.90
2022-09-11T01:35:45.599Z,7.30
2022-09-11T01:40:44.889Z,7.30
2022-09-11T01:45:43.213Z,7.10
2022-09-11T01:50:44.123Z,7.10
2022-09-11T01:55:44.978Z,7.30
2022-09-11T02:00:40.130Z,7.30
2022-09-11T02:05:44.807Z,7.70
2022-09-11T02:15:53.392Z,8.20
2022-09-11T02:25:39.346Z,7.80
2022-09-11T02:30:40.470Z,7.80
2022-09-11T02:35:49.624Z,7.30
2022-09-11T02:50:40.213Z,7.60
2022-09-11T02:55:47.116Z,7.50
2022-09-11T03:00:39.413Z,7.50
2022-09-11T03:05:40.006Z,7.50
2022-09-11T03:25:39.861Z,9.40
2022-09-11T03:50:39.337Z,9.60
2022-09-11T04:05:41.065Z,10.20
2022-09-11T04:15:39.361Z,10.90
2022-09-11T04:20:39.420Z,10.90
2022-09-11T04:25:39.381Z,11.40
2022-09-11T04:35:39.708Z,9.80
2022-09-11T04:40:39.430Z,9.80
2022-09-11T04:45:40.657Z,9.30
2022-09-11T04:50:40.261Z,9.30
2022-09-11T04:55:39.461Z,10.10
2022-09-11T05:00:40.114Z,10.10
2022-09-11T05:05:39.521Z,9.80
2022-09-11T05:10:41.258Z,9.80
2022-09-11T05:15:39.525Z,10.00
2022-09-11T05:30:39.645Z,9.80
2022-09-11T05:35:39.845Z,10.30
2022-09-11T05:40:43.716Z,10.30
2022-09-11T05:45:39.675Z,11.00
2022-09-11T05:55:39.683Z,10.60
2022-09-11T06:00:41.360Z,10.60
2022-09-11T06:20:40.747Z,10.30
2022-09-11T06:25:39.695Z,10.00
2022-09-11T06:30:40.379Z,10.00
2022-09-11T06:40:39.763Z,10.50
2022-09-11T06:45:40.877Z,10.30
2022-09-11T06:50:39.963Z,10.30
2022-09-11T06:55:40.099Z,11.40
2022-09-11T07:00:39.786Z,11.40
2022-09-11T07:05:46.264Z,10.70
2022-09-11T07:10:40.159Z,10.70
2022-09-11T07:15:41.388Z,11.50
2022-09-11T07:20:40.424Z,11.50
2022-09-11T07:25:40.129Z,8.20
2022-09-11T07:30:39.981Z,8.20
2022-09-11T07:35:39.887Z,6.70
2022-09-11T07:40:39.937Z,6.70
2022-09-11T07:45:39.963Z,8.30
2022-09-11T07:50:39.935Z,8.30
2022-09-11T08:00:40.009Z,7.90
2022-09-11T08:10:40.150Z,7.00
2022-09-11T08:15:45.059Z,5.30
2022-09-11T08:25:40.522Z,7.00
2022-09-11T08:30:40.081Z,7.00
2022-09-11T08:35:40.070Z,7.40
2022-09-11T08:40:40.098Z,7.40
2022-09-11T08:45:40.139Z,5.00
2022-09-11T08:50:42.352Z,5.00
2022-09-11T08:55:51.754Z,4.10
2022-09-11T09:00:47.065Z,4.10
2022-09-11T09:05:53.270Z,4.60
2022-09-11T09:10:47.476Z,4.60
2022-09-11T09:15:48.935Z,4.20
2022-09-11T09:20:45.619Z,4.20
2022-09-11T09:25:42.027Z,4.10
2022-09-11T09:30:49.174Z,4.10
2022-09-11T09:35:42.360Z,4.90
2022-09-11T09:40:51.539Z,4.90
2022-09-11T09:46:00.238Z,5.00
2022-09-11T09:50:43.667Z,5.00
2022-09-11T09:55:41.672Z,4.40
2022-09-11T10:00:40.771Z,4.40
2022-09-11T10:05:42.049Z,3.40
2022-09-11T10:10:40.469Z,3.40
2022-09-11T10:15:41.934Z,2.90
2022-09-11T10:20:40.396Z,2.90
2022-09-11T10:25:48.848Z,3.00
2022-09-11T10:30:45.264Z,3.00
2022-09-11T10:35:49.562Z,2.70
2022-09-11T10:40:44.421Z,2.70
2022-09-11T10:45:40.461Z,2.70
2022-09-11T10:50:41.832Z,1.90
2022-09-11T10:55:47.435Z,1.90
2022-09-11T11:00:40.585Z,2.20
2022-09-11T11:05:59.006Z,2.20
2022-09-11T11:10:55.193Z,2.20
2022-09-11T11:15:59.847Z,2.30
2022-09-11T11:20:47.690Z,2.30
2022-09-11T11:25:56.521Z,1.60
2022-09-11T11:30:43.895Z,1.60
2022-09-11T11:35:56.796Z,1.60
2022-09-11T11:40:46.888Z,1.30
2022-09-11T11:45:46.971Z,1.30
2022-09-11T11:50:45.222Z,1.20
2022-09-11T11:55:47.340Z,1.20
2022-09-11T12:00:45.217Z,1.40
2022-09-11T12:05:40.719Z,1.40
2022-09-11T12:10:55.276Z,1.60
2022-09-11T12:16:01.364Z,1.60
2022-09-11T12:20:42.615Z,1.60
2022-09-11T12:25:40.747Z,1.60
2022-09-11T12:31:00.706Z,1.80
2022-09-11T12:35:48.060Z,1.80
2022-09-11T12:40:53.131Z,2.00
2022-09-11T12:45:41.240Z,2.00
2022-09-11T12:50:48.980Z,2.10
2022-09-11T12:55:51.524Z,2.10
2022-09-11T13:00:43.010Z,2.20
2022-09-11T13:05:43.473Z,2.20
2022-09-11T13:10:41.082Z,2.10
2022-09-11T13:15:42.370Z,2.10
2022-09-11T13:30:53.492Z,2.30
2022-09-11T13:40:46.518Z,2.40
2022-09-11T13:45:41.272Z,2.40
2022-09-11T13:55:45.365Z,2.40
2022-09-11T14:00:44.923Z,2.00
2022-09-11T14:10:40.981Z,2.20
2022-09-11T14:15:48.261Z,2.20
2022-09-11T14:20:43.947Z,1.90
2022-09-11T14:35:43.880Z,1.80
2022-09-11T14:40:50.100Z,1.70
2022-09-11T14:50:41.250Z,1.80
2022-09-11T14:55:41.118Z,1.80
2022-09-11T15:00:41.468Z,1.70
2022-09-11T15:05:43.159Z,1.70
2022-09-11T15:10:41.632Z,1.60
2022-09-11T15:15:41.394Z,1.60
2022-09-11T15:20:41.189Z,1.90
2022-09-11T15:25:41.391Z,1.90
2022-09-11T15:35:41.345Z,1.80
2022-09-11T15:45:42.042Z,5.00
2022-09-11T15:50:41.495Z,1.80
2022-09-11T15:55:41.275Z,1.80
2022-09-11T16:00:41.306Z,1.70
2022-09-11T16:05:41.991Z,1.70
2022-09-11T16:10:41.445Z,1.60
2022-09-11T16:20:42.933Z,1.80
2022-09-11T16:25:41.422Z,1.80
2022-09-11T16:30:44.298Z,1.60
2022-09-11T16:35:41.507Z,1.60
2022-09-11T16:45:51.474Z,1.80
2022-09-11T16:55:41.510Z,1.80
2022-09-11T17:10:44.492Z,2.10
2022-09-11T17:15:42.384Z,2.10
2022-09-11T17:20:41.663Z,2.20
2022-09-11T17:30:41.607Z,2.40
2022-09-11T17:40:41.637Z,2.40
2022-09-11T17:45:41.623Z,2.40
2022-09-11T17:50:41.591Z,2.30
2022-09-11T17:55:41.688Z,2.30
2022-09-11T18:00:41.656Z,2.50
2022-09-11T18:10:48.079Z,2.70
2022-09-11T18:20:42.385Z,2.60
2022-09-11T18:25:42.124Z,2.60
2022-09-11T18:30:42.056Z,3.10
2022-09-11T18:35:42.762Z,3.10
2022-09-11T18:55:41.769Z,2.90
2022-09-11T19:00:41.895Z,3.50
2022-09-11T19:05:41.838Z,3.50
2022-09-11T19:10:41.861Z,4.10
2022-09-11T19:15:41.864Z,4.10
2022-09-11T19:20:42.313Z,3.30
2022-09-11T19:25:42.523Z,3.30
2022-09-11T19:30:43.236Z,3.50
2022-09-11T19:35:41.872Z,3.50
2022-09-11T19:45:42.205Z,3.60
2022-09-11T19:50:42.682Z,3.70
2022-09-11T19:55:41.928Z,3.70
2022-09-11T20:05:43.021Z,3.90
2022-09-11T20:15:42.589Z,3.60
2022-09-11T20:20:45.312Z,3.70
2022-09-11T20:30:42.750Z,3.70
2022-09-11T20:40:44.650Z,3.90
2022-09-11T20:45:42.077Z,3.90
2022-09-11T21:00:43.587Z,4.40
2022-09-11T21:15:43.533Z,4.20
2022-09-11T21:20:51.813Z,4.70
2022-09-11T21:25:42.215Z,4.70
2022-09-11T21:30:42.221Z,4.60
2022-09-11T21:35:42.269Z,4.60
2022-09-11T21:40:42.177Z,4.90
2022-09-11T21:45:42.486Z,4.90
2022-09-11T21:50:42.303Z,5.50
2022-09-11T21:55:44.222Z,5.50
2022-09-11T22:00:43.268Z,7.60
2022-09-11T22:05:44.072Z,7.60
2022-09-11T22:15:45.803Z,7.30
2022-09-11T22:20:42.877Z,8.50
2022-09-11T22:25:43.674Z,8.50
2022-09-11T22:30:43.039Z,6.10
2022-09-11T22:55:43.671Z,5.50
2022-09-11T23:00:44.055Z,5.60
2022-09-11T23:15:42.480Z,5.70
2022-09-11T23:20:42.799Z,5.30
2022-09-11T23:30:42.758Z,5.90
2022-09-11T23:40:42.533Z,5.90
2022-09-11T23:45:42.549Z,5.90
